Verdigris, Oklahoma
Current Conditions -  °F | °C
As of 10:15 AM on Wednesday 26 Nov 2014 (Local Time) from KGCM Reporting Station
Clear Clear  
Wind Chill: 44°   Ceiling: Unl
Heat Index: 48°   Visibility: 10mi
Dew Point: 32°   Wind: 9mph
Humidity: 54%   Direction: 330°NNW
Pressure: 30.13"   Gusts: 17mph
Location:  36.3346°N, 95.5666°W
Report Text: KGCM 261615Z AUTO 33008G15KT 10SM CLR 09/00 A3013 RMK AO2
Loading
Personal Weather Stations






























Interactive Weather Map New forecast layout! Learn more

10-Day Weather Forecast

Advertisements
Track Severe Weather on mobile